FIMPFMEE

Guest
Details From FIMP - SIR SEEWOOSAGUR RAMGOOLAM INTL
To FMEE - St Denis Gillot
Flight Number -
Tags decoded
Created
Modified
Stats Distance 127 nm / 235 km
Max Altitude 0 ft / 0 m
Waypoints 4
Social Downloads 13
Likes 0
Share VATSIM

Download

Looking for another format? Having issues loading an existing format? Contact us
Advertisement - Login to hide

Notes

Requested: FIMP SOBAT D097Y D116V ERBES EE508 FMEE Unmatched points: D097Y D116V EE508

Route

FIMP SOBAT ERBES FMEE

ID Type Via Altitude (ft/m) Position (lat/lon) Dist (leg/tot) Name
O FIMP APT - 0 / 0 -20.43023 / 57.68360 - / 0 nm SIR SEEWOOSAGUR RAMGOOLAM INTL
SOBAT FIX - 0 / 0 -20.72469 / 56.26711 81 / 81 nm
ERBES FIX - 0 / 0 -20.94128 / 55.75153 31 / 113 nm
O FMEE APT - 0 / 0 -20.88931 / 55.51775 13 / 126 nm St Denis Gillot

Altitude Profile

Advertisement - Login to hide

FIMP

Details ICAO FIMP (MRU)
Name Sir Seewoosagur Ramgoolam International Airport
Region Mauritius
Timezone Indian/Mauritius (UTC+4.0)
Stats Elevation 183 ft / 56 m (AMSL)
Location -20.430900° 57.685000°
Runways 1
Magnetic Variation 18.359° W

METAR

FIMP 191500Z 11013KT 9999 SCT016 SCT250 27/20 Q1016

Decode

TAF

TAF FIMP 191140Z 1912/2018 12013G25KT 9999 SCT018 TEMPO 1918/2003 7000 -SHRA SCT015 BKN050

Decode

Departure Runways

ID Width Length Bearing (true/mag) Surface Threshold Overrun Markings Lighting
14 148 ft / 45 m 9,984 ft / 3,043 m 117.13° / 135.48° ASPHALT 0 ft / 0 m 0 ft / 0 m PREC-APP CENTERLINE EDGE THRESHOLD MALSF
32 148 ft / 45 m 9,984 ft / 3,043 m 297.12° / 315.48° ASPHALT 0 ft / 0 m 203 ft / 62 m PREC-APP CENTERLINE EDGE THRESHOLD MALSF

FMEE

Details ICAO FMEE (RUN)
Name Roland Garros
Region Comoros, Mayotte, Réunion and Madagascar
Timezone Indian/Reunion (UTC+4.0)
Stats Elevation 64 ft / 20 m (AMSL)
Location -20.889300° 55.517800°
Runways 2
Magnetic Variation 18.946° W

METAR

FMEE 191530Z AUTO 13014KT CAVOK 26/19 Q1015 TEMPO 11015G25KT

Decode

TAF

Not found

Destination Runways

ID Width Length Bearing (true/mag) Surface Threshold Overrun Markings Lighting
12 148 ft / 45 m 10,508 ft / 3,203 m 102.26° / 121.21° ASPHALT 397 ft / 121 m 0 ft / 0 m PREC-APP CENTERLINE EDGE THRESHOLD ALSF-I REIL-UNI
14 148 ft / 45 m 8,768 ft / 2,672 m 116.55° / 135.49° ASPHALT 328 ft / 100 m 0 ft / 0 m PREC-APP CENTERLINE EDGE THRESHOLD ALSF-I REIL-UNI
30 148 ft / 45 m 10,508 ft / 3,203 m 282.25° / 301.20° ASPHALT 0 ft / 0 m 0 ft / 0 m PREC-APP CENTERLINE EDGE THRESHOLD ALSF-I REIL-UNI
32 148 ft / 45 m 8,768 ft / 2,672 m 296.54° / 315.49° ASPHALT 1,175 ft / 358 m 0 ft / 0 m PREC-APP CENTERLINE EDGE THRESHOLD ALSF-I REIL-UNI

Approach Navaids

Runway Type Ident Frequency Range Bearing (true/mag) Slope Elevation
14 LOC-ILS SD 110.30 MHz 18 nm / 33 km 116.63° / 135.58 ° - 66 ft / 20 m (AMSL)
14 GS SD 110.30 MHz 10 nm / 19 km 117.09° / 136.04 ° 3.00° 46 ft / 14 m (AMSL)
14 DME SD 110.30 MHz 18 nm / 33 km - - 46 ft / 14 m (AMSL)

Popular Alternatives